GIBO2: Ft Gibson Lake, OK

Data processed at Sat Dec 09 2017 23:31


All information presented herein is the property of the government of the United States of America and may be revised or deleted at any time without prior notice.
Dissemination of this information without the expressed written consent of the Public Affairs Office, Tulsa District U.S. Army Corps of Engineers is strictly prohibited.
These data are gathered electronically and, as presented, have not undergone any form of quality control. These data are not guaranteed to be valid or correct.
Go to home page.
Go to station list.

Upstream stations:

Downstream station:
Previous Day
Next Day
Current Day
    
SHEF ID:       GIBO2     Ft Gibson Lake, OK
STATION TYPE:  RESERVOIR
Normal Pool:  Bottom =   551.00, Top =   554.00

               PRECIP ELEVATION   STORAGE   TW-ELEV    INFLOW   RELEASE  AIR-TEMP  WIND-DIRWIND-SPEED REL-HUMID SOLAR-RAD   VOLTAGE  BAT-LOAD
                   in        ft     ac-ft        ft       cfs       cfs         F       deg       mph         %      W/m2      volt      volt
              Ccp-Rev   Ccp-Rev   Ccp-Rev   Ccp-Rev  Regi-Rev  Regi-Rev   Ccp-Rev   Ccp-Rev   Ccp-Rev   Ccp-Rev   Ccp-Rev   Ccp-Rev   Ccp-Rev
(US/Central)
12/07 00:00      0.00    553.87    362769    490.37       173         0     37.47    169.40      0.74     78.38      0.00     13.66     13.48
12/07 01:00      0.00    553.93    363891    490.22       173         0     40.53      6.10      1.47     50.91      0.00     13.65     13.42
12/07 02:00      0.00    553.96    364452    490.12       173         0     39.11      4.40      2.60     57.32      1.00     13.65     13.42
12/07 03:00      0.00    553.99    365013    490.06       174         0     36.48      8.70      4.51     66.17      0.00     13.64     13.42
12/07 04:00      0.00    553.98    364826    489.99        12         0     33.19      8.70      4.07     51.77      0.00     13.66     13.42
12/07 05:00      0.00    553.93    363891    489.96         2         0     31.42      5.70      4.92     55.55      0.00     13.64     13.48
12/07 06:00      0.00    553.87    362769    490.46         2         0     30.99      5.90      4.23     58.30      0.00     13.65     13.48
12/07 07:00      0.00    553.90    363330    492.91        39      7977     29.34     13.80      2.71     63.55      0.00     13.65     13.48
12/07 08:00      0.00    553.86    362582    493.32        55      8073     27.91     10.50      6.19     63.92      8.00     13.64     13.42
12/07 09:00      0.00    553.87    362769    493.41        64      8073     29.55      9.90      1.93     55.56    125.00     13.65     13.48
12/07 10:00      0.00    553.84    362208    493.37        64      8073     30.76      1.80      2.94     48.77    350.00     13.65     13.48
12/07 11:00      0.00    553.78    361086    493.34        64      8073     33.62    346.60      0.84     48.16    497.00     13.65     13.42
12/07 12:00      0.00    553.77    360899    493.09        26      8073     33.73     10.80      0.38     41.21    583.00     13.63     13.48
12/07 13:00      0.00    553.76    360712    491.24        10         0     35.38      5.00      0.91     36.87    601.00     13.65     13.48
12/07 14:00      0.00    553.75    360525    490.62         0         0     38.14     15.90      2.09     35.84    550.00     13.65     13.48
12/07 15:00      0.00    553.77    360899    490.42         0         0     38.68      7.10      1.41     33.27    439.00     13.65     13.07
12/07 16:00      0.00    553.72    359964    490.23         0         0     39.22    351.50      0.13     36.56    278.00     13.66     13.00
12/07 17:00      0.00    553.69    359403    490.59         2         0     35.60     11.10      1.28     36.44     67.00     13.65     13.48
12/07 18:00      0.00    553.67    359029    492.95         4      8073     34.16     15.40      3.37     41.69      2.00     13.64     13.42
12/07 19:00      0.00    553.66    358842    493.32         4      8073     33.17     18.80      4.37     42.91      0.00     13.65     13.48
12/07 20:00      0.00    553.61    357907    493.34         4      8073     31.86     27.10      5.88     47.25      0.00     13.66     13.48
12/07 21:00      0.00    553.60    357720    493.09         4      8073     31.64      9.40      3.63     47.98      0.00     13.66     13.42
12/07 22:00      0.00    553.61    357907    491.24         2         0     30.43     22.50      2.50     44.81      1.00     13.65     13.48
12/07 23:00      0.00    553.57    357159    490.62         0         0     28.02     37.90      1.29     78.33      0.00     13.65     13.48